Time;durP1;ratioP1;P1;durP2;ratioP2;P2;SDS_P1;SDS_P2;PMS_P1;PMS_P2;Temp;Humidity;BMP_temperature;BMP_pressure;BME280_temperature;BME280_humidity;BME280_pressure;Samples;Min_cycle;Max_cycle;Signal;HPM_P1;HPM_P2
2022/06/21 00:01:22;;;;;;;;;9.00;7.75;;;;;21.36;48.57;100636.44;5026054;28;46146;-81
2022/06/21 00:03:49;;;;;;;;;7.50;7.00;;;;;21.33;48.67;100629.59;5034122;28;45726;-83
2022/06/21 00:06:21;;;;;;;;;7.25;7.00;;;;;21.24;48.83;100612.03;5031049;28;46114;-84
2022/06/21 00:08:47;;;;;;;;;8.00;7.00;;;;;21.24;49.03;100619.19;5032711;28;46508;-80
2022/06/21 00:11:31;;;;;;;;;8.25;8.00;;;;;21.15;49.19;100609.59;5030946;28;45669;-83
2022/06/21 00:13:56;;;;;;;;;9.00;8.75;;;;;21.12;49.34;100605.41;5029781;28;46855;-82
2022/06/21 00:16:25;;;;;;;;;9.00;8.00;;;;;21.05;49.05;100595.66;5031936;28;45798;-83
2022/06/21 00:22:03;;;;;;;;;10.25;9.25;;;;;20.89;49.95;100581.41;4990253;28;45998;-85
2022/06/21 00:24:28;;;;;;;;;11.00;10.75;;;;;20.84;50.10;100575.78;4990759;28;45798;-84
2022/06/21 00:26:54;;;;;;;;;9.50;9.50;;;;;20.91;49.65;100587.41;4992378;28;45808;-84
2022/06/21 00:29:19;;;;;;;;;11.50;9.00;;;;;20.86;49.93;100588.94;4992908;28;45809;-82
2022/06/21 00:32:16;;;;;;;;;8.50;8.50;;;;;20.81;49.96;100596.63;4991707;28;45898;-83
2022/06/21 00:34:44;;;;;;;;;11.00;9.25;;;;;20.83;49.94;100607.94;4944335;28;45692;-83
2022/06/21 00:37:27;;;;;;;;;12.50;10.50;;;;;20.73;50.14;100594.03;4950122;28;45677;-86
2022/06/21 00:40:28;;;;;;;;;11.25;10.25;;;;;20.75;50.19;100600.81;4949925;28;48007;-84
2022/06/21 00:42:58;;;;;;;;;11.75;11.75;;;;;20.74;50.16;100609.81;4948566;28;46805;-84
2022/06/21 00:45:29;;;;;;;;;12.50;11.50;;;;;20.68;50.24;100604.34;4950919;28;45708;-84
2022/06/21 00:48:07;;;;;;;;;13.00;11.00;;;;;20.67;50.48;100598.22;4950182;28;45880;-85
2022/06/21 00:50:36;;;;;;;;;14.25;11.75;;;;;20.66;50.41;100599.22;4964449;28;45812;-82
2022/06/21 00:53:31;;;;;;;;;10.75;10.75;;;;;20.60;50.56;100596.41;4970131;28;46778;-83
2022/06/21 00:56:44;;;;;;;;;;;;;;;;;;;;;
2022/06/21 00:59:46;;;;;;;;;13.50;13.00;;;;;20.45;50.72;100615.78;4971828;28;67995;-84
2022/06/21 01:02:31;;;;;;;;;13.25;13.25;;;;;20.49;50.60;100614.44;4964605;28;47185;-81
2022/06/21 01:05:10;;;;;;;;;14.50;13.50;;;;;20.38;50.83;100596.19;4942087;28;47694;-81
2022/06/21 01:07:50;;;;;;;;;15.00;14.00;;;;;20.47;50.88;100634.22;4955519;28;45907;-82
2022/06/21 01:11:14;;;;;;;;;13.50;12.50;;;;;20.40;50.93;100609.31;4960814;28;45811;-85
2022/06/21 01:14:24;;;;;;;;;15.25;13.50;;;;;20.31;50.93;100589.00;4971683;28;48038;-83
2022/06/21 01:17:42;;;;;;;;;12.50;11.50;;;;;20.32;50.98;100594.19;4901707;28;46183;-85
2022/06/21 01:20:43;;;;;;;;;16.75;14.75;;;;;20.42;51.04;100612.63;4879842;29;45723;-86
2022/06/21 01:23:37;;;;;;;;;14.00;13.75;;;;;20.41;50.90;100608.28;4879841;29;45666;-83
2022/06/21 01:26:24;;;;;;;;;14.25;13.00;;;;;20.39;51.06;100618.31;4863868;29;45712;-87
2022/06/21 01:28:51;;;;;;;;;12.75;12.50;;;;;20.26;50.80;100616.16;4879379;29;46932;-81
2022/06/21 01:31:24;;;;;;;;;12.00;11.50;;;;;20.22;51.25;100598.03;4879804;29;45735;-85
2022/06/21 01:34:13;;;;;;;;;12.75;12.50;;;;;20.39;51.13;100615.66;4879566;29;45610;-82
2022/06/21 01:36:39;;;;;;;;;11.50;11.50;;;;;20.31;51.07;100608.50;4879000;28;46482;-83
2022/06/21 01:39:08;;;;;;;;;11.25;11.25;;;;;20.35;51.04;100617.00;4879415;29;46320;-82
2022/06/21 01:41:51;;;;;;;;;13.50;12.00;;;;;20.36;50.97;100627.44;4879256;29;45987;-82
2022/06/21 01:44:23;;;;;;;;;12.50;12.00;;;;;20.37;51.13;100639.75;4879842;29;45602;-85
2022/06/21 01:51:34;;;;;;;;;;;;;;;;;;;;;
2022/06/21 01:54:24;;;;;;;;;;;;;;;;;;;;;
2022/06/21 01:57:38;;;;;;;;;11.25;10.50;;;;;20.25;50.68;100657.06;4837600;29;68931;-83
2022/06/21 02:00:04;;;;;;;;;11.25;10.75;;;;;20.41;50.77;100696.97;4861693;29;48455;-81
2022/06/21 02:02:37;;;;;;;;;11.75;11.00;;;;;20.50;50.54;100709.28;4879102;29;45548;-83
2022/06/21 02:08:11;;;;;;;;;12.75;12.25;;;;;20.49;50.95;100691.63;4878864;29;45752;-84
2022/06/21 02:10:49;;;;;;;;;9.50;8.25;;;;;20.56;50.74;100697.09;4879381;29;46433;-85
2022/06/21 02:13:21;;;;;;;;;11.25;10.50;;;;;20.51;50.66;100689.59;4879144;29;46285;-84
2022/06/21 02:15:49;;;;;;;;;10.25;10.25;;;;;20.58;50.54;100692.44;4879152;29;45829;-85
2022/06/21 02:18:17;;;;;;;;;11.00;10.25;;;;;20.59;50.29;100687.94;4878869;29;45656;-82
2022/06/21 02:24:04;;;;;;;;;8.50;7.75;;;;;20.60;50.44;100671.78;4878662;29;45811;-82
2022/06/21 02:26:33;;;;;;;;;11.50;10.00;;;;;20.59;50.34;100653.31;4890210;28;45632;-85
2022/06/21 02:28:59;;;;;;;;;10.50;9.00;;;;;20.60;50.64;100634.53;4955434;28;45719;-80
2022/06/21 02:31:26;;;;;;;;;9.75;8.75;;;;;20.56;50.65;100629.72;4955417;28;46820;-83
2022/06/21 02:33:56;;;;;;;;;10.50;10.25;;;;;20.47;50.62;100605.78;4955129;28;46157;-85
2022/06/21 02:39:44;;;;;;;;;11.00;10.75;;;;;20.52;50.61;100616.75;5016355;28;45630;-83
2022/06/21 02:42:32;;;;;;;;;11.50;11.25;;;;;20.50;50.89;100608.13;5015967;28;45566;-81
2022/06/21 02:45:04;;;;;;;;;11.25;10.50;;;;;20.50;50.92;100596.63;5016059;28;46288;-82
2022/06/21 02:47:39;;;;;;;;;10.50;10.25;;;;;20.45;50.73;100601.66;5015934;28;45488;-77
2022/06/21 02:50:42;;;;;;;;;12.75;10.25;;;;;20.45;51.05;100599.81;5026759;28;45812;-83
2022/06/21 02:56:57;;;;;;;;;10.50;10.25;;;;;20.43;51.13;100604.47;5036000;28;45464;-79
2022/06/21 02:59:23;;;;;;;;;11.00;10.00;;;;;20.41;51.33;100592.31;4916591;28;45603;-81
2022/06/21 03:02:00;;;;;;;;;11.25;10.50;;;;;20.42;51.42;100591.34;4916375;28;45801;-78
2022/06/21 03:04:35;;;;;;;;;9.00;9.00;;;;;20.39;51.06;100592.53;4916052;28;45659;-83
2022/06/21 03:07:01;;;;;;;;;8.75;8.00;;;;;20.38;51.06;100582.88;4916189;28;45950;-84
2022/06/21 03:09:27;;;;;;;;;11.25;10.75;;;;;20.35;51.24;100579.75;4916122;28;45741;-82
2022/06/21 03:11:59;;;;;;;;;13.50;12.50;;;;;20.23;50.95;100557.97;4916260;28;45808;-83
2022/06/21 03:14:27;;;;;;;;;11.50;10.75;;;;;20.33;51.87;100576.41;4914802;28;47288;-84
2022/06/21 03:16:54;;;;;;;;;11.00;10.25;;;;;20.30;51.53;100558.91;4916050;28;46098;-84
2022/06/21 03:19:34;;;;;;;;;11.50;10.25;;;;;20.25;51.67;100552.44;4915321;28;45648;-82
2022/06/21 03:22:02;;;;;;;;;11.25;10.50;;;;;20.20;51.88;100536.19;4915950;28;45800;-82
2022/06/21 03:24:27;;;;;;;;;11.25;10.00;;;;;20.22;51.90;100526.19;4915942;28;46785;-82
2022/06/21 03:27:13;;;;;;;;;10.00;9.25;;;;;20.21;51.83;100520.03;4915713;28;46229;-83
2022/06/21 03:29:38;;;;;;;;;12.25;12.25;;;;;20.23;51.96;100510.06;4915957;28;45827;-82
2022/06/21 03:32:05;;;;;;;;;12.25;11.50;;;;;20.18;52.34;100504.44;4915797;28;45919;-84
2022/06/21 03:34:32;;;;;;;;;11.75;10.25;;;;;20.13;52.12;100482.84;4899412;28;46750;-84
2022/06/21 03:36:59;;;;;;;;;11.00;10.50;;;;;20.21;52.03;100496.09;5008411;28;46044;-81
2022/06/21 03:42:20;;;;;;;;;13.25;12.25;;;;;20.10;52.20;100478.69;4935557;28;45812;-83
2022/06/21 03:44:54;;;;;;;;;10.50;10.50;;;;;20.02;52.82;100475.25;4934800;28;46478;-83
2022/06/21 03:47:35;;;;;;;;;12.50;12.50;;;;;20.00;52.92;100466.59;4934664;28;45967;-84
2022/06/21 03:50:06;;;;;;;;;11.75;10.25;;;;;19.96;52.71;100460.00;4934560;28;45755;-82
2022/06/21 03:52:55;;;;;;;;;12.75;12.50;;;;;19.91;53.45;100449.03;4934819;28;45714;-80
2022/06/21 03:55:37;;;;;;;;;13.50;11.00;;;;;19.83;53.57;100435.75;4934373;28;45717;-83
2022/06/21 03:58:22;;;;;;;;;11.50;11.50;;;;;19.87;53.61;100442.38;4934285;28;46187;-83
2022/06/21 04:00:58;;;;;;;;;12.25;12.00;;;;;19.85;53.75;100442.59;4934711;28;45791;-83
2022/06/21 04:03:24;;;;;;;;;12.00;12.00;;;;;19.85;53.69;100439.09;4935176;28;45921;-79
2022/06/21 04:06:31;;;;;;;;;14.50;13.00;;;;;19.75;53.68;100417.19;4934973;28;46282;-80
2022/06/21 04:09:14;;;;;;;;;13.50;12.50;;;;;19.82;53.87;100424.31;4896561;29;46505;-81
2022/06/21 04:11:52;;;;;;;;;12.75;12.00;;;;;19.74;53.64;100413.72;4896078;29;45623;-80
2022/06/21 04:14:34;;;;;;;;;12.75;12.75;;;;;19.80;53.92;100421.00;4896126;29;45839;-85
2022/06/21 04:17:06;;;;;;;;;13.00;12.50;;;;;19.79;54.36;100421.16;4895988;29;45887;-81
2022/06/21 04:19:48;;;;;;;;;12.75;11.75;;;;;19.76;54.89;100411.69;4930352;28;46019;-82
2022/06/21 04:25:52;;;;;;;;;14.00;12.25;;;;;19.61;55.17;100395.66;4953566;28;45667;-82
2022/06/21 04:28:24;;;;;;;;;12.25;12.00;;;;;19.55;55.88;100400.81;4953765;28;46555;-80
2022/06/21 04:31:11;;;;;;;;;11.00;10.50;;;;;19.45;55.94;100387.75;4953312;28;46368;-81
2022/06/21 04:33:52;;;;;;;;;12.50;11.00;;;;;19.34;56.39;100387.25;4953063;28;45620;-81
2022/06/21 04:36:23;;;;;;;;;12.50;12.25;;;;;19.24;56.33;100379.47;4953615;28;45648;-83
2022/06/21 04:42:31;;;;;;;;;10.75;10.75;;;;;19.02;57.74;100393.47;4967500;28;45989;-82
2022/06/21 04:45:14;;;;;;;;;13.75;13.00;;;;;18.90;57.58;100379.69;5034451;28;45733;-82
2022/06/21 04:48:05;;;;;;;;;13.75;12.75;;;;;18.82;57.75;100385.88;5034455;28;45689;-81
2022/06/21 04:50:39;;;;;;;;;12.50;11.75;;;;;18.74;57.66;100385.03;5033680;28;45629;-81
2022/06/21 04:53:26;;;;;;;;;13.50;12.50;;;;;18.72;57.81;100387.03;5015683;28;47394;-82
2022/06/21 04:56:13;;;;;;;;;14.50;13.00;;;;;18.68;58.42;100389.19;5016026;28;45868;-80
2022/06/21 04:58:39;;;;;;;;;12.00;11.00;;;;;18.63;58.26;100380.06;5034309;28;45758;-80
2022/06/21 05:01:29;;;;;;;;;15.50;14.50;;;;;18.58;59.00;100385.03;5015497;28;47389;-81
2022/06/21 05:03:52;;;;;;;;;13.75;13.00;;;;;18.53;58.91;100384.66;5033858;28;46271;-83
2022/06/21 05:06:18;;;;;;;;;12.25;11.75;;;;;18.49;58.73;100399.28;5033838;28;45532;-78
2022/06/21 05:08:48;;;;;;;;;15.75;12.75;;;;;18.51;58.37;100411.41;5034031;28;45889;-82
2022/06/21 05:11:14;;;;;;;;;14.50;13.00;;;;;18.49;58.57;100409.88;5033879;28;45549;-83
2022/06/21 05:13:58;;;;;;;;;15.00;14.25;;;;;18.52;58.91;100422.81;5033426;28;45662;-80
2022/06/21 05:16:34;;;;;;;;;13.00;11.25;;;;;18.51;58.61;100434.44;5033663;28;45465;-82
2022/06/21 05:19:12;;;;;;;;;14.25;13.50;;;;;18.46;58.44;100437.59;5033889;28;45519;-82
2022/06/21 05:21:48;;;;;;;;;14.50;14.25;;;;;18.43;58.61;100435.25;5033484;28;45729;-81
2022/06/21 05:24:14;;;;;;;;;14.25;14.25;;;;;18.50;58.61;100441.56;5033664;28;46840;-81
2022/06/21 05:26:46;;;;;;;;;12.50;12.50;;;;;18.53;58.29;100437.75;5033689;28;45678;-82
2022/06/21 05:29:20;;;;;;;;;13.75;12.75;;;;;18.40;58.57;100406.41;5033807;28;45732;-84
2022/06/21 05:31:48;;;;;;;;;13.75;12.75;;;;;18.40;58.80;100409.88;5033058;28;47315;-84
2022/06/21 05:34:21;;;;;;;;;12.50;11.75;;;;;18.45;59.00;100435.91;5033606;28;46351;-82
2022/06/21 05:36:57;;;;;;;;;12.25;12.00;;;;;18.48;58.60;100446.19;5033598;28;45613;-82
2022/06/21 05:39:30;;;;;;;;;13.75;13.00;;;;;18.44;58.55;100436.91;5033774;28;45791;-82
2022/06/21 05:42:01;;;;;;;;;13.75;13.00;;;;;18.46;58.56;100440.25;5033672;28;45487;-83
2022/06/21 05:44:34;;;;;;;;;13.00;13.00;;;;;18.45;58.60;100441.22;5037045;28;45618;-82
2022/06/21 05:47:33;;;;;;;;;13.75;13.25;;;;;18.46;58.67;100435.75;5036940;28;45568;-79
2022/06/21 05:50:00;;;;;;;;;12.00;12.00;;;;;18.50;58.72;100443.38;4955265;28;45763;-83
2022/06/21 05:52:34;;;;;;;;;16.75;14.75;;;;;18.49;58.95;100431.94;4955567;28;45808;-76
2022/06/21 05:55:05;;;;;;;;;13.75;12.75;;;;;18.50;58.32;100435.44;4955446;28;46076;-77
2022/06/21 05:57:38;;;;;;;;;17.25;14.00;;;;;18.49;59.27;100431.09;4955422;28;45803;-77
2022/06/21 06:00:06;;;;;;;;;17.00;16.50;;;;;18.49;58.24;100421.31;4955371;28;45831;-78
2022/06/21 06:02:45;;;;;;;;;13.75;13.75;;;;;18.51;58.61;100427.31;4955331;28;46865;-76
2022/06/21 06:05:26;;;;;;;;;15.25;14.75;;;;;18.54;58.80;100429.66;4956220;28;46174;-77
2022/06/21 06:07:58;;;;;;;;;15.50;14.00;;;;;18.55;59.08;100422.53;4955667;28;45876;-76
2022/06/21 06:10:26;;;;;;;;;16.25;15.00;;;;;18.58;58.85;100414.22;4955373;28;45721;-76
2022/06/21 06:13:00;;;;;;;;;16.75;15.00;;;;;18.55;58.46;100419.88;4955388;28;45683;-77
2022/06/21 06:15:38;;;;;;;;;14.00;14.00;;;;;18.54;59.03;100415.53;4955638;28;45992;-77
2022/06/21 06:18:17;;;;;;;;;13.25;13.00;;;;;18.52;58.59;100409.53;4938991;28;45915;-79
2022/06/21 06:21:01;;;;;;;;;15.00;15.00;;;;;18.55;58.33;100401.31;4955133;28;45832;-79
2022/06/21 06:26:53;;;;;;;;;13.50;12.75;;;;;18.70;59.15;100413.75;4994153;28;46091;-82
2022/06/21 06:29:28;;;;;;;;;16.25;15.75;;;;;18.77;58.41;100406.78;5036279;28;45626;-81
2022/06/21 06:32:56;;;;;;;;;15.50;14.75;;;;;18.83;58.22;100418.56;5036167;28;45810;-82
2022/06/21 06:35:25;;;;;;;;;15.50;14.50;;;;;18.69;58.55;100398.81;4938701;28;46582;-80
2022/06/21 06:37:52;;;;;;;;;15.25;15.25;;;;;18.89;58.33;100419.72;4957522;28;46327;-82
2022/06/21 06:43:53;;;;;;;;;15.00;15.00;;;;;19.09;57.91;100439.59;4958313;28;45654;-82
2022/06/21 06:46:31;;;;;;;;;17.00;15.50;;;;;19.11;58.08;100427.81;4957508;28;45746;-83
2022/06/21 06:49:20;;;;;;;;;18.50;17.50;;;;;19.20;57.98;100444.56;4956114;28;46196;-82
2022/06/21 06:51:51;;;;;;;;;14.25;14.25;;;;;19.30;57.99;100458.50;4949560;28;45631;-82
2022/06/21 06:54:25;;;;;;;;;14.25;14.25;;;;;19.35;57.72;100448.19;4954652;28;45932;-79
2022/06/21 06:57:03;;;;;;;;;18.00;15.00;;;;;19.43;57.55;100439.38;4954623;28;46939;-79
2022/06/21 06:59:28;;;;;;;;;18.00;16.00;;;;;19.52;57.27;100441.03;4954461;28;46755;-79
2022/06/21 07:02:22;;;;;;;;;17.75;17.75;;;;;19.54;57.60;100445.16;4954428;28;45690;-79
2022/06/21 07:04:56;;;;;;;;;16.50;16.00;;;;;19.56;57.26;100448.50;4953306;28;45647;-79
2022/06/21 07:07:32;;;;;;;;;16.50;15.75;;;;;19.58;57.56;100456.31;4954305;28;46458;-80
2022/06/21 07:10:03;;;;;;;;;16.75;14.75;;;;;19.62;57.19;100462.94;5029612;28;46823;-77
2022/06/21 07:12:30;;;;;;;;;15.25;13.50;;;;;19.66;57.26;100470.38;5036945;28;45624;-79
2022/06/21 07:14:57;;;;;;;;;16.25;14.50;;;;;19.70;57.57;100473.56;5036800;28;45866;-78
2022/06/21 07:17:41;;;;;;;;;18.00;16.00;;;;;19.78;57.73;100472.69;5035552;28;46776;-78
2022/06/21 07:20:17;;;;;;;;;16.25;16.25;;;;;19.83;57.41;100479.13;5035834;28;46028;-79
2022/06/21 07:22:43;;;;;;;;;16.50;15.75;;;;;19.89;57.26;100475.78;5035170;28;45618;-80
2022/06/21 07:25:36;;;;;;;;;13.75;12.50;;;;;19.93;57.29;100482.41;5035102;28;45496;-79
2022/06/21 07:28:14;;;;;;;;;15.25;13.50;;;;;19.99;57.17;100478.25;5016646;28;47521;-78
2022/06/21 07:30:45;;;;;;;;;13.75;13.25;;;;;20.05;57.21;100482.88;5034711;28;45940;-79
2022/06/21 07:33:22;;;;;;;;;17.25;16.00;;;;;20.10;57.43;100491.16;5035083;28;45731;-78
2022/06/21 07:35:52;;;;;;;;;15.50;14.00;;;;;20.16;56.92;100494.97;5034788;28;45686;-78
2022/06/21 07:38:27;;;;;;;;;14.50;14.50;;;;;20.20;57.30;100493.59;5034543;28;45853;-75
2022/06/21 07:40:54;;;;;;;;;15.50;14.75;;;;;20.26;56.86;100492.91;5034705;28;45651;-76
2022/06/21 07:43:27;;;;;;;;;15.50;14.00;;;;;20.33;56.85;100501.91;5034443;28;45584;-76
2022/06/21 07:45:56;;;;;;;;;13.50;13.50;;;;;20.39;57.17;100498.53;5034806;28;45645;-75
2022/06/21 07:48:36;;;;;;;;;16.25;15.00;;;;;20.45;56.59;100495.19;5034806;28;45859;-76
2022/06/21 07:51:14;;;;;;;;;16.00;13.25;;;;;20.52;57.03;100499.59;5034148;28;46324;-75
2022/06/21 07:53:55;;;;;;;;;14.25;14.00;;;;;20.62;56.62;100504.69;5034353;28;45760;-75
2022/06/21 07:56:45;;;;;;;;;13.75;13.00;;;;;20.71;56.27;100501.00;5034485;28;45496;-75
2022/06/21 07:59:35;;;;;;;;;15.50;14.50;;;;;20.81;56.55;100484.78;5016115;28;46613;-75
2022/06/21 08:08:13;;;;;;;;;17.50;16.00;;;;;21.06;56.43;100494.22;5034266;28;45643;-76
2022/06/21 08:14:01;;;;;;;;;15.50;14.75;;;;;21.17;56.22;100493.81;5033931;28;45644;-75
2022/06/21 08:16:35;;;;;;;;;16.50;15.00;;;;;21.25;56.26;100500.94;5034029;28;45611;-76
2022/06/21 08:19:05;;;;;;;;;18.25;16.50;;;;;21.28;56.12;100484.56;5033893;28;45730;-79
2022/06/21 08:21:44;;;;;;;;;16.50;15.25;;;;;21.31;55.76;100479.72;5035891;28;45922;-80
2022/06/21 08:30:57;;;;;;;;;18.25;16.25;;;;;21.57;56.00;100519.28;5034174;28;45676;-77
2022/06/21 08:33:32;;;;;;;;;17.00;16.25;;;;;21.60;55.80;100515.41;5033858;28;45971;-76
2022/06/21 08:36:24;;;;;;;;;14.00;12.25;;;;;21.63;55.55;100517.72;5034389;28;46596;-77
2022/06/21 08:38:56;;;;;;;;;16.50;16.00;;;;;21.66;55.60;100526.16;5034235;28;45690;-77
2022/06/21 08:41:55;;;;;;;;;14.50;14.00;;;;;21.72;55.59;100516.59;5034347;28;45666;-78
2022/06/21 08:44:35;;;;;;;;;14.75;14.00;;;;;21.80;55.54;100519.19;5033960;28;45841;-77
2022/06/21 08:47:49;;;;;;;;;16.25;14.50;;;;;21.89;55.53;100519.94;5034097;28;46455;-77
2022/06/21 08:50:20;;;;;;;;;18.75;17.50;;;;;21.98;56.01;100518.84;5033962;28;45531;-77
2022/06/21 08:53:03;;;;;;;;;16.75;16.00;;;;;22.05;55.73;100514.44;5034173;28;45610;-76
2022/06/21 08:58:53;;;;;;;;;18.75;17.50;;;;;;;;5033719;28;46028;-77
2022/06/21 09:01:24;;;;;;;;;16.75;16.25;;;;;22.24;55.63;100502.38;5033870;28;45650;-76
2022/06/21 09:04:23;;;;;;;;;16.50;16.50;;;;;22.31;55.33;100498.75;5034172;28;45478;-76
2022/06/21 09:07:27;;;;;;;;;18.75;17.50;;;;;22.38;55.04;100501.50;5033755;28;45580;-77
2022/06/21 09:13:57;;;;;;;;;18.75;17.75;;;;;22.48;55.48;100494.00;4952663;28;45584;-77
2022/06/21 09:16:44;;;;;;;;;18.50;16.75;;;;;22.50;55.04;100497.31;4936369;28;45951;-77
2022/06/21 09:19:30;;;;;;;;;17.50;16.00;;;;;22.52;55.37;100498.78;4956033;28;47054;-77
2022/06/21 09:22:19;;;;;;;;;18.00;17.00;;;;;22.52;54.70;100505.94;4956092;28;45763;-76
2022/06/21 09:31:51;;;;;;;;;17.00;15.50;;;;;22.59;54.95;100496.19;4917050;28;45783;-77
2022/06/21 09:34:34;;;;;;;;;20.75;18.25;;;;;22.62;54.67;100497.66;4917434;28;45997;-77
2022/06/21 09:37:25;;;;;;;;;16.50;16.25;;;;;22.62;55.36;100495.78;4917172;28;45641;-79
2022/06/21 09:43:17;;;;;;;;;18.00;17.75;;;;;22.66;55.21;100493.56;4916879;28;45695;-80
2022/06/21 09:46:08;;;;;;;;;20.50;18.75;;;;;22.68;54.88;100488.84;4934217;28;46010;-79
2022/06/21 09:48:58;;;;;;;;;18.75;18.25;;;;;22.67;55.35;100490.72;4974907;28;46002;-79
2022/06/21 09:51:41;;;;;;;;;18.50;18.50;;;;;22.66;54.78;100488.22;4974461;28;45803;-79
2022/06/21 09:54:12;;;;;;;;;18.75;17.00;;;;;22.65;55.52;100481.22;4974632;28;46622;-80
2022/06/21 10:00:59;;;;;;;;;17.25;17.25;;;;;22.59;55.59;100472.97;4974353;28;45799;-78
2022/06/21 10:03:42;;;;;;;;;19.25;19.00;;;;;22.53;55.67;100465.72;4974818;28;45855;-78
2022/06/21 10:06:28;;;;;;;;;20.25;18.50;;;;;22.55;55.58;100462.84;4974709;28;46051;-80
2022/06/21 10:09:20;;;;;;;;;21.00;21.00;;;;;22.52;55.17;100456.03;4974441;28;46360;-79
2022/06/21 10:12:07;;;;;;;;;24.00;22.00;;;;;22.50;55.48;100459.94;4974620;28;45835;-80
2022/06/21 10:15:13;;;;;;;;;19.75;19.00;;;;;22.49;55.55;100456.44;4975095;28;45668;-80
2022/06/21 10:18:05;;;;;;;;;19.00;16.75;;;;;22.52;55.38;100461.38;4962223;28;45790;-78
2022/06/21 10:20:34;;;;;;;;;21.50;19.50;;;;;22.53;55.84;100456.88;4974872;28;46025;-80
2022/06/21 10:23:22;;;;;;;;;21.00;18.25;;;;;22.45;55.86;100431.13;4974389;28;45728;-79
2022/06/21 10:29:45;;;;;;;;;17.00;15.00;;;;;22.49;56.01;100424.38;4973828;28;45689;-79
2022/06/21 10:32:30;;;;;;;;;20.00;19.25;;;;;22.64;55.22;100439.50;4974322;28;46314;-79
2022/06/21 10:35:17;;;;;;;;;21.50;21.00;;;;;22.65;55.04;100439.31;5032804;28;45899;-80
2022/06/21 10:38:19;;;;;;;;;19.50;18.50;;;;;22.66;54.93;100426.81;5036078;28;45606;-80
2022/06/21 10:41:16;;;;;;;;;17.25;16.75;;;;;22.59;55.50;100419.56;5035402;28;45667;-80
2022/06/21 10:44:01;;;;;;;;;21.50;18.75;;;;;22.69;55.54;100427.22;5035361;28;46054;-81
2022/06/21 10:46:38;;;;;;;;;21.50;20.50;;;;;22.69;55.69;100413.88;5035468;28;45523;-80
2022/06/21 10:49:48;;;;;;;;;20.00;19.50;;;;;22.69;55.62;100405.88;5035614;28;45594;-80
2022/06/21 10:52:34;;;;;;;;;19.25;18.25;;;;;22.82;55.63;100421.22;4915694;28;45565;-80
2022/06/21 10:55:27;;;;;;;;;20.00;18.75;;;;;22.87;55.16;100413.44;4915640;28;45999;-80
2022/06/21 10:58:01;;;;;;;;;17.25;16.75;;;;;22.91;55.48;100412.88;4899906;28;45803;-81
2022/06/21 11:03:39;;;;;;;;;18.00;16.50;;;;;23.00;54.67;100408.19;4915335;28;46085;-81
2022/06/21 11:06:19;;;;;;;;;19.25;17.75;;;;;23.06;55.03;100404.75;4915521;28;46506;-81
2022/06/21 11:09:24;;;;;;;;;22.50;21.50;;;;;23.10;54.56;100405.19;4915783;28;45683;-80
2022/06/21 11:15:18;;;;;;;;;25.75;22.00;;;;;23.21;54.22;100410.00;4915658;28;45750;-79
2022/06/21 11:17:46;;;;;;;;;23.00;21.50;;;;;23.25;54.58;100412.09;4915671;28;46239;-81
2022/06/21 11:20:26;;;;;;;;;23.25;21.00;;;;;23.23;54.47;100403.44;4899482;28;45747;-81
2022/06/21 11:22:54;;;;;;;;;24.00;23.75;;;;;23.33;54.00;100405.75;4957822;28;45850;-81
2022/06/21 11:25:27;;;;;;;;;24.25;20.50;;;;;23.33;54.10;100390.53;5014952;28;46860;-81
2022/06/21 11:31:23;;;;;;;;;21.50;20.75;;;;;23.43;53.54;100395.50;5014755;28;45537;-80
2022/06/21 11:34:01;;;;;;;;;18.50;17.00;;;;;23.49;53.97;100394.75;5015031;28;45587;-82
2022/06/21 11:36:37;;;;;;;;;26.50;25.25;;;;;23.55;53.11;100390.47;5014801;28;45687;-80
2022/06/21 11:40:01;;;;;;;;;24.25;19.25;;;;;23.58;53.57;100382.88;5014836;28;45998;-80
2022/06/21 11:42:35;;;;;;;;;22.50;22.00;;;;;23.65;52.57;100396.28;4914560;28;45703;-78
2022/06/21 11:45:26;;;;;;;;;21.25;20.75;;;;;23.68;53.12;100398.56;4899001;28;45782;-77
2022/06/21 11:48:07;;;;;;;;;23.50;22.75;;;;;23.73;52.86;100396.13;4913428;28;45821;-78
2022/06/21 11:50:58;;;;;;;;;19.25;18.25;;;;;23.75;52.59;100388.72;4905641;28;46428;-77
2022/06/21 11:53:53;;;;;;;;;21.25;19.75;;;;;23.83;52.61;100393.88;4933999;28;45570;-77
2022/06/21 11:59:58;;;;;;;;;20.25;19.00;;;;;23.94;52.80;100390.63;4933784;28;45983;-77
2022/06/21 12:02:32;;;;;;;;;17.75;17.75;;;;;24.01;52.82;100390.66;4933848;28;46088;-77
2022/06/21 12:05:22;;;;;;;;;20.00;18.50;;;;;24.07;52.19;100388.00;4934004;28;45722;-76
2022/06/21 12:08:11;;;;;;;;;17.00;16.50;;;;;24.11;52.25;100388.41;4933997;28;45774;-84
2022/06/21 12:10:43;;;;;;;;;18.25;16.00;;;;;24.15;52.02;100382.47;4934155;28;45643;-78
2022/06/21 12:16:39;;;;;;;;;18.25;18.25;;;;;24.27;52.14;100376.53;4994825;28;45675;-79
2022/06/21 12:19:14;;;;;;;;;18.75;16.25;;;;;24.33;51.75;100378.41;5034232;28;45731;-78
2022/06/21 12:22:04;;;;;;;;;16.00;14.75;;;;;24.35;51.62;100371.78;5033994;28;45926;-78
2022/06/21 12:24:30;;;;;;;;;20.00;19.75;;;;;24.44;51.75;100388.50;5033362;28;47230;-78
2022/06/21 12:26:56;;;;;;;;;17.25;15.00;;;;;24.44;51.87;100359.06;5033877;28;45629;-78
2022/06/21 12:29:23;;;;;;;;;17.25;17.00;;;;;24.49;51.53;100357.41;5034082;28;45472;-77
2022/06/21 12:31:56;;;;;;;;;18.50;16.50;;;;;24.60;51.68;100370.19;5033344;28;46587;-78
2022/06/21 12:34:34;;;;;;;;;21.50;19.50;;;;;24.65;51.31;100369.56;5033423;28;45527;-78
2022/06/21 12:37:02;;;;;;;;;18.25;18.00;;;;;24.69;51.17;100360.06;5033572;28;45705;-78
2022/06/21 12:39:36;;;;;;;;;16.75;15.75;;;;;24.76;50.78;100363.59;5033655;28;45771;-78
2022/06/21 12:42:18;;;;;;;;;17.00;17.00;;;;;24.81;50.71;100361.09;5033296;28;45527;-78
2022/06/21 12:45:00;;;;;;;;;18.00;17.50;;;;;24.87;50.70;100359.44;5033514;28;45942;-79
2022/06/21 12:47:41;;;;;;;;;19.00;17.50;;;;;24.91;50.70;100352.66;5033280;28;45640;-78
2022/06/21 12:50:34;;;;;;;;;16.00;16.00;;;;;24.98;50.71;100357.00;5033131;28;45763;-78
2022/06/21 12:53:21;;;;;;;;;20.00;17.50;;;;;25.05;50.55;100355.09;5039812;28;46510;-78
2022/06/21 12:56:05;;;;;;;;;17.25;16.50;;;;;25.13;50.39;100356.75;5039821;28;46186;-77
2022/06/21 12:59:07;;;;;;;;;20.00;18.75;;;;;25.20;50.37;100357.56;5039980;28;45594;-78
2022/06/21 13:01:46;;;;;;;;;20.00;18.25;;;;;25.23;49.85;100364.34;5040151;28;45828;-77
2022/06/21 13:05:00;;;;;;;;;17.50;17.25;;;;;25.28;49.87;100356.50;5021616;28;47388;-78
2022/06/21 13:07:34;;;;;;;;;17.25;17.25;;;;;25.39;50.18;100358.53;5039687;28;46062;-77
2022/06/21 13:10:18;;;;;;;;;16.50;16.50;;;;;25.45;49.74;100350.47;5039803;28;45585;-78
2022/06/21 13:16:23;;;;;;;;;15.75;15.50;;;;;25.60;49.39;100344.03;5039593;28;46146;-77
2022/06/21 13:19:07;;;;;;;;;14.50;14.50;;;;;25.64;49.24;100335.34;5039812;28;45649;-77
2022/06/21 13:21:51;;;;;;;;;18.00;15.00;;;;;25.72;49.37;100327.06;5039610;28;45742;-78
2022/06/21 13:24:42;;;;;;;;;15.00;13.00;;;;;25.82;49.09;100329.28;5039878;28;45587;-77
2022/06/21 13:33:57;;;;;;;;;16.00;14.50;;;;;25.95;48.38;100328.38;5039136;28;45640;-77
2022/06/21 13:36:47;;;;;;;;;17.25;17.00;;;;;25.96;48.82;100321.97;5039784;28;45712;-79
2022/06/21 13:39:35;;;;;;;;;16.50;16.00;;;;;25.99;48.38;100319.66;5039781;28;45694;-78
2022/06/21 13:44:56;;;;;;;;;17.50;15.50;;;;;26.06;47.54;100316.94;5038711;28;45663;-78
2022/06/21 13:47:44;;;;;;;;;15.00;14.25;;;;;26.09;47.83;100313.81;5039283;28;45833;-78
2022/06/21 13:50:40;;;;;;;;;13.25;13.00;;;;;26.14;47.30;100311.31;5038609;28;45696;-79
2022/06/21 13:53:10;;;;;;;;;17.00;16.25;;;;;26.19;47.74;100311.47;5038920;28;45753;-78
2022/06/21 13:56:03;;;;;;;;;14.75;14.00;;;;;26.23;47.31;100307.34;5038731;28;45646;-79
2022/06/21 14:02:05;;;;;;;;;13.00;13.00;;;;;26.34;47.54;100298.59;5038137;28;45601;-79